Aérodrome :
LOGIN :

S'inscrire | Disclaimer

   EN    FR    IT 

 










Légende :    VFR   VFR Marginal   IFR   IFR Intensif   IFR Très Intensif
Visi : 
Plafond : 
>= 8 km
>= 3000ft
5 à 8 km
1000 à 3000 ft
1500m à 5 km
500 à 1000 ft
800 à 1500m
200 à 500 ft
< 800m
< 200 ft
Symboles :   Orages  Brouillard  Fortes neiges  Fortes précipitations  Vent > 20 kt
SIGMETs :   Divers  Orages  Givrage  Turbulence  Onde Orograph.  Cendres Volcan.







- Altitude de l'aérodrome : -15 ft
- Code IATA : RTM


EHRD - Rotterdam Zestienhoven

DERNIER METAR :
  • 181925Z AUTO 16006KT 9999 NSC 04/01 Q1023 NOSIG

METARs EXPIRÉS :
  • 181855Z AUTO 17006KT 9999 NSC 04/01 Q1023 NOSIG
  • 181825Z AUTO 16006KT 9999 NSC 04/01 Q1023 NOSIG
  • 181755Z AUTO 16004KT 110V180 9999 NSC 05/01 Q1023 NOSIG
  • 181725Z AUTO 18005KT 110V210 9999 NCD 04/01 Q1023 NOSIG
  • 181655Z AUTO 18006KT 130V240 9999 NCD 06/02 Q1023 NOSIG

TAF TAF EHRD
Valide du 18 à 18h jusqu'au 20 à 00h UTC


181658Z 1818/1924 17006KT CAVOK
PROB30 1900/1908 3000 BR
Pas de NOTAMs connus pour ce terrain.



MET'MAP, la Météo Aéronautique d'un coup d'oeil ! - Copyright ORBIFLY Décembre 2007 - Disclaimer

ORBIFLY MET'MAP TEAM :

Programmation & Développement : Alexandra Zaïnal
Conception & Développement : Baudouin d'Aumeries
Co-Programmation & Développement : Marc-Olivier Méhu
Soutien technique & logistique : Manuel Goepfert

Contact : metmap@orbifly.com




SOURCES & CREDITS :

   NOAA